Terminal Aerodrome Forecast
Issued by NWS

Home | Current Version | Previous Version | Text Only | Print | Product List | Glossary On
Versions: 1 2 3 4 5 6 7 8 9 10 11 12 13 14 15 16 17
000
FTUS46 KLOX 312300 RRA
TAFOXR
TAF
KOXR 312340Z 0100/0124 27014KT P6SM SKC
     FM010200 27010KT P6SM SKC
     FM010500 VRB03KT P6SM SKC
     FM011200 VRB03KT 5SM BR BKN006
     FM011630 VRB03KT P6SM SCT008
     FM011800 27007KT P6SM SKC
     FM012100 26012KT P6SM SKC=

USA.gov is the U.S. government's official web portal to all federal, state and local government web resources and services.